Terminal Aerodrome Forecast
Issued by NWS

Home | Current Version | Previous Version | Text Only | Print | Product List | Glossary Off
Versions: 1 2 3 4 5 6 7 8 9 10 11 12 13 14 15 16 17 18 19 20 21 22 23 24 25 26 27 28 29 30 31 32 33 34 35 36 37 38 39 40 41 42

000
FTUS43 KDDC 010342 AAA
TAFGCK
TAF AMD
KGCK 010342Z 0104/0124 14007KT P6SM OVC020
     FM010600 14007KT P6SM OVC007
      TEMPO 0108/0112 2SM -SN
     FM011200 11007KT P6SM OVC003=

USA.gov is the U.S. government's official web portal to all federal, state and local government web resources and services.